Time;durP1;ratioP1;P1;durP2;ratioP2;P2;SDS_P1;SDS_P2;PMS_P1;PMS_P2;Temp;Humidity;BMP_temperature;BMP_pressure;BME280_temperature;BME280_humidity;BME280_pressure;Samples;Min_cycle;Max_cycle;Signal;HPM_P1;HPM_P2
2020/12/03 00:01:14;;;;;;;;;;;;;;;-0.62;100.00;101027.75;1779724;79;21026;-79
2020/12/03 00:03:54;;;;;;;44.93;27.03;;;;;;;-0.57;100.00;101030.50;1771469;79;20217;-78
2020/12/03 00:06:30;;;;;;;;;;;;;;;-0.51;100.00;101030.37;1780387;79;21103;-79
2020/12/03 00:09:10;;;;;;;53.80;31.73;;;;;;;-0.42;100.00;101027.39;1776089;79;21264;-79
2020/12/03 00:11:43;;;;;;;56.00;30.55;;;;;;;-0.40;100.00;101037.61;1749565;79;21161;-79
2020/12/03 00:14:11;;;;;;;54.53;31.20;;;;;;;-0.41;100.00;101037.16;1782018;79;21113;-79
2020/12/03 00:16:40;;;;;;;56.77;32.47;;;;;;;-0.41;100.00;101028.25;1773166;79;21142;-80
2020/12/03 00:19:09;;;;;;;54.80;34.27;;;;;;;-0.31;100.00;101032.95;1769575;79;21221;-79
2020/12/03 00:21:50;;;;;;;60.30;32.80;;;;;;;-0.20;100.00;101030.47;1772129;79;21405;-78
2020/12/03 00:24:22;;;;;;;57.23;31.87;;;;;;;-0.12;100.00;101034.23;1765100;79;21153;-79
2020/12/03 00:26:51;;;;;;;52.87;31.47;;;;;;;-0.07;100.00;101038.24;1787071;79;21110;-79
2020/12/03 00:29:23;;;;;;;55.07;33.00;;;;;;;-0.02;100.00;101035.11;1770028;79;21143;-78
2020/12/03 00:31:53;;;;;;;65.90;33.97;;;;;;;0.07;100.00;101027.02;1777239;79;21042;-79
2020/12/03 00:34:21;;;;;;;61.77;32.43;;;;;;;0.16;100.00;101029.06;1778409;79;21168;-79
2020/12/03 00:36:52;;;;;;;57.10;32.27;;;;;;;0.20;100.00;101028.01;1754109;80;21142;-78
2020/12/03 00:39:20;;;;;;;56.47;32.00;;;;;;;0.24;100.00;101022.65;1745047;81;21154;-79
2020/12/03 00:41:51;;;;;;;54.90;30.00;;;;;;;0.25;100.00;101021.83;1713364;82;21160;-78
2020/12/03 00:44:19;;;;;;;;;;;;;;;0.30;100.00;101020.77;1803125;79;21101;-79
2020/12/03 00:46:47;;;;;;;55.33;31.87;;;;;;;0.33;100.00;101018.36;1775077;79;22168;-79
2020/12/03 00:49:16;;;;;;;61.13;32.57;;;;;;;0.36;100.00;101019.35;1746986;80;21003;-78
2020/12/03 00:51:50;;;;;;;66.60;33.45;;;;;;;0.35;100.00;101018.86;1768065;79;21133;-79
2020/12/03 00:54:19;;;;;;;53.03;31.20;;;;;;;0.40;100.00;101014.85;1731651;81;21143;-78
2020/12/03 00:56:50;;;;;;;57.40;32.77;;;;;;;0.46;100.00;101020.61;1768240;79;21161;-79
2020/12/03 00:59:18;;;;;;;55.63;32.83;;;;;;;0.48;100.00;101011.75;1796931;79;22286;-79
2020/12/03 01:01:46;;;;;;;58.27;29.60;;;;;;;0.51;100.00;101005.52;1768566;79;21079;-79
2020/12/03 01:04:13;;;;;;;63.37;33.33;;;;;;;0.51;100.00;101014.42;1735812;80;21126;-78
2020/12/03 01:06:44;;;;;;;65.00;34.57;;;;;;;0.42;99.35;101017.45;1790184;79;21146;-80
2020/12/03 01:09:12;;;;;;;56.77;28.03;;;;;;;0.25;98.33;101017.15;1787245;79;21121;-78
2020/12/03 01:11:41;;;;;;;65.00;34.58;;;;;;;-0.07;98.91;101009.86;1748028;81;21199;-79
2020/12/03 01:14:09;;;;;;;55.90;32.70;;;;;;;-0.25;99.53;101003.98;1790681;79;21114;-79
2020/12/03 01:16:37;;;;;;;48.70;24.47;;;;;;;-0.30;100.00;101002.49;1741103;81;21122;-78
2020/12/03 01:19:04;;;;;;;68.63;33.73;;;;;;;-0.32;100.00;101004.12;1746922;80;21471;-79
2020/12/03 01:21:32;;;;;;;58.77;33.07;;;;;;;-0.33;100.00;100999.84;1774310;79;21099;-78
2020/12/03 01:24:00;;;;;;;62.03;33.93;;;;;;;-0.26;100.00;101003.53;1800248;79;21349;-79
2020/12/03 01:26:30;;;;;;;52.63;27.07;;;;;;;-0.16;100.00;101003.13;1795476;79;21191;-78
2020/12/03 01:28:58;;;;;;;63.10;31.17;;;;;;;-0.20;100.00;101007.58;1772437;79;21007;-78
2020/12/03 01:31:31;;;;;;;61.07;34.37;;;;;;;-0.34;100.00;101000.63;1795642;78;21145;-79
2020/12/03 01:33:55;;;;;;;62.27;32.30;;;;;;;-0.41;100.00;101002.84;1799359;79;21026;-80
2020/12/03 01:36:24;;;;;;;59.40;31.87;;;;;;;-0.36;100.00;100997.16;1800125;79;21357;-76
2020/12/03 01:38:52;;;;;;;69.40;36.07;;;;;;;-0.28;100.00;100994.95;1770596;79;21097;-78
2020/12/03 01:41:20;;;;;;;56.03;29.97;;;;;;;-0.34;100.00;101001.89;1776536;79;21134;-79
2020/12/03 01:43:48;;;;;;;56.63;28.97;;;;;;;-0.47;100.00;100998.34;1771931;79;21201;-79
2020/12/03 01:46:16;;;;;;;59.47;27.80;;;;;;;-0.57;100.00;100991.97;1761998;81;21074;-80
2020/12/03 01:48:58;;;;;;;55.57;29.43;;;;;;;-0.61;100.00;101005.75;1778301;79;21375;-79
2020/12/03 01:51:40;;;;;;;62.73;32.60;;;;;;;-0.77;100.00;100994.88;1779397;79;21137;-78
2020/12/03 01:54:13;;;;;;;54.17;27.83;;;;;;;-0.95;100.00;100997.45;1787144;79;21644;-79
2020/12/03 01:57:04;;;;;;;70.90;34.43;;;;;;;-1.07;100.00;100993.05;1769131;79;21143;-79
2020/12/03 01:59:44;;;;;;;62.53;32.20;;;;;;;-1.10;100.00;100994.17;1783813;79;21530;-79
2020/12/03 02:02:14;;;;;;;64.27;32.88;;;;;;;-1.05;100.00;100997.78;1775483;79;21252;-78
2020/12/03 02:04:42;;;;;;;63.98;33.25;;;;;;;-0.96;100.00;100992.28;1774884;79;21153;-79
2020/12/03 02:07:13;;;;;;;70.60;35.37;;;;;;;-0.80;100.00;100996.41;1775023;79;21113;-78
2020/12/03 02:09:40;;;;;;;58.17;28.65;;;;;;;-0.73;100.00;100992.07;1755657;79;21540;-79
2020/12/03 02:12:09;;;;;;;66.13;33.00;;;;;;;-0.72;100.00;100998.88;1770148;79;21086;-79
2020/12/03 02:14:36;;;;;;;58.63;31.17;;;;;;;-0.73;100.00;100988.27;1775580;79;21372;-79
2020/12/03 02:17:04;;;;;;;53.33;28.57;;;;;;;-0.70;100.00;100982.05;1776167;79;21157;-79
2020/12/03 02:19:32;;;;;;;59.13;31.73;;;;;;;-0.77;100.00;100986.39;1788349;79;21074;-79
2020/12/03 02:22:04;;;;;;;51.33;29.57;;;;;;;-0.79;100.00;100995.19;1768468;79;21089;-79
2020/12/03 02:24:41;;;;;;;60.20;33.73;;;;;;;-0.73;100.00;100991.66;1778746;79;21145;-78
2020/12/03 02:27:12;;;;;;;57.00;31.67;;;;;;;-0.63;100.00;100994.23;1769585;79;21170;-80
2020/12/03 02:29:40;;;;;;;61.23;32.40;;;;;;;-0.52;100.00;100993.47;1778746;79;21101;-78
2020/12/03 02:32:07;;;;;;;63.93;32.80;;;;;;;-0.40;100.00;100986.77;1741922;81;21058;-79
2020/12/03 02:34:36;;;;;;;57.60;32.03;;;;;;;-0.28;100.00;100989.86;1789559;79;21026;-79
2020/12/03 02:37:05;;;;;;;57.47;30.03;;;;;;;-0.20;100.00;100990.19;1726313;81;21062;-78
2020/12/03 02:39:35;;;;;;;56.20;31.13;;;;;;;-0.12;100.00;100988.87;1774764;79;21200;-78
2020/12/03 02:42:04;;;;;;;63.80;32.83;;;;;;;-0.12;100.00;100989.73;1709808;82;21105;-79
2020/12/03 02:44:32;;;;;;;46.10;24.23;;;;;;;-0.17;100.00;100995.41;1706029;82;21048;-79
2020/12/03 02:47:00;;;;;;;60.40;32.70;;;;;;;-0.19;100.00;100995.36;1789736;79;21130;-79
2020/12/03 02:49:29;;;;;;;60.63;32.23;;;;;;;-0.17;100.00;100995.41;1768730;79;21134;-79
2020/12/03 02:51:58;;;;;;;54.80;27.07;;;;;;;-0.16;100.00;100993.36;1776125;79;21560;-78
2020/12/03 02:54:27;;;;;;;56.57;30.10;;;;;;;-0.24;100.00;100990.05;1776398;79;21107;-79
2020/12/03 02:56:54;;;;;;;56.47;30.80;;;;;;;-0.37;100.00;100989.05;1772190;79;21139;-79
2020/12/03 02:59:22;;;;;;;52.37;27.93;;;;;;;-0.41;100.00;100990.13;1751862;80;21540;-78
2020/12/03 03:01:51;;;;;;;56.50;29.93;;;;;;;-0.38;100.00;100987.31;1761570;80;21133;-80
2020/12/03 03:04:20;;;;;;;47.10;25.83;;;;;;;-0.37;100.00;100992.86;1717694;81;21161;-79
2020/12/03 03:06:48;;;;;;;51.60;30.33;;;;;;;-0.40;100.00;100995.27;1703702;82;21403;-79
2020/12/03 03:09:16;;;;;;;51.63;29.20;;;;;;;-0.48;100.00;100992.39;1711591;84;21158;-77
2020/12/03 03:11:45;;;;;;;57.47;30.37;;;;;;;-0.54;100.00;100988.70;1707493;83;21145;-79
2020/12/03 03:14:12;;;;;;;56.97;30.43;;;;;;;-0.58;100.00;100989.37;1732074;82;21075;-78
2020/12/03 03:16:41;;;;;;;54.83;28.23;;;;;;;-0.59;100.00;100991.42;1699979;84;21628;-79
2020/12/03 03:19:09;;;;;;;49.97;29.23;;;;;;;-0.52;100.00;100991.79;1719939;83;21142;-80
2020/12/03 03:21:37;;;;;;;53.57;30.10;;;;;;;-0.47;100.00;100992.84;1723610;82;21133;-79
2020/12/03 03:24:04;;;;;;;46.17;23.97;;;;;;;-0.59;100.00;100985.97;1736284;82;21165;-79
2020/12/03 03:26:32;;;;;;;53.57;30.47;;;;;;;-0.77;100.00;100985.12;1728877;82;21113;-79
2020/12/03 03:29:00;;;;;;;59.40;31.83;;;;;;;-0.87;100.00;100982.55;1728552;82;21200;-79
2020/12/03 03:31:28;;;;;;;45.47;25.10;;;;;;;-0.86;100.00;100986.83;1722889;82;21141;-79
2020/12/03 03:33:56;;;;;;;62.73;32.00;;;;;;;-0.79;100.00;100990.52;1717003;82;21090;-78
2020/12/03 03:36:24;;;;;;;48.87;28.37;;;;;;;-0.72;100.00;100992.16;1681936;82;21090;-78
2020/12/03 03:38:52;;;;;;;56.33;30.40;;;;;;;-0.71;100.00;100985.00;1706471;83;21162;-79
2020/12/03 03:41:20;;;;;;;45.27;24.10;;;;;;;-0.67;100.00;100988.95;1710253;82;21574;-78
2020/12/03 03:43:48;;;;;;;56.27;30.43;;;;;;;-0.70;100.00;100982.05;1703973;82;21174;-77
2020/12/03 03:46:16;;;;;;;52.37;29.50;;;;;;;-0.71;100.00;100985.41;1715418;83;21077;-79
2020/12/03 03:48:43;;;;;;;46.53;28.63;;;;;;;-0.64;100.00;100985.28;1731957;80;21075;-78
2020/12/03 03:51:12;;;;;;;44.33;24.53;;;;;;;-0.59;100.00;100988.51;1711690;82;21557;-78
2020/12/03 03:53:40;;;;;;;42.57;26.87;;;;;;;-0.57;100.00;100992.38;1728568;81;21837;-78
2020/12/03 03:56:08;;;;;;;47.97;26.40;;;;;;;-0.56;100.00;100991.16;1694114;80;21383;-78
2020/12/03 03:58:38;;;;;;;44.50;27.52;;;;;;;-0.54;100.00;100989.56;1722991;81;21249;-78
2020/12/03 04:01:06;;;;;;;48.93;28.93;;;;;;;-0.52;100.00;100985.44;1729014;82;21062;-79
2020/12/03 04:03:34;;;;;;;50.80;26.90;;;;;;;-0.45;100.00;100984.03;1774020;79;21114;-79
2020/12/03 04:06:01;;;;;;;50.50;28.80;;;;;;;-0.36;100.00;100978.47;1767233;80;21640;-78
2020/12/03 04:08:29;;;;;;;47.83;27.10;;;;;;;-0.33;100.00;100977.34;1772169;80;21154;-79
2020/12/03 04:10:57;;;;;;;56.40;27.70;;;;;;;-0.30;100.00;100977.47;1729726;80;21050;-78
2020/12/03 04:13:25;;;;;;;49.73;26.83;;;;;;;-0.27;100.00;100977.61;1784167;80;21541;-80
2020/12/03 04:15:53;;;;;;;51.70;28.13;;;;;;;-0.24;100.00;100978.61;1783865;79;21074;-78
2020/12/03 04:18:26;;;;;;;51.27;29.70;;;;;;;-0.31;100.00;100985.91;1768706;79;21778;-78
2020/12/03 04:20:57;;;;;;;48.05;27.30;;;;;;;-0.35;100.00;100979.83;1784174;79;21137;-79
2020/12/03 04:23:25;;;;;;;50.03;27.53;;;;;;;-0.34;100.00;100979.42;1726110;80;21039;-78
2020/12/03 04:25:53;;;;;;;50.03;27.10;;;;;;;-0.33;100.00;100974.80;1747915;80;21054;-79
2020/12/03 04:28:21;;;;;;;52.10;28.80;;;;;;;-0.29;100.00;100973.75;1782000;79;21110;-78
2020/12/03 04:30:49;;;;;;;48.93;27.77;;;;;;;-0.35;99.08;100972.61;1786754;80;21142;-80
2020/12/03 04:33:16;;;;;;;37.53;20.93;;;;;;;-0.39;100.00;100977.96;1725371;82;21075;-79
2020/12/03 04:35:44;;;;;;;44.57;25.37;;;;;;;-0.37;99.82;100975.06;1755061;80;21033;-79
2020/12/03 04:38:12;;;;;;;39.57;21.27;;;;;;;-0.42;99.55;100982.05;1766586;80;21182;-78
2020/12/03 04:43:43;;;;;;;47.20;26.30;;;;;;;-0.56;99.91;100987.34;1733061;81;21305;-78
2020/12/03 04:46:34;;;;;;;35.87;20.13;;;;;;;-0.56;100.00;100986.08;1738036;81;21114;-77
2020/12/03 04:49:25;;;;;;;;;;;;;;;-0.51;100.00;100985.03;1643065;83;21470;-79
2020/12/03 04:55:22;;;;;;;42.80;24.70;;;;;;;-0.58;100.00;100986.83;1656097;86;21196;-78
2020/12/03 04:58:13;;;;;;;47.20;27.27;;;;;;;-0.50;100.00;100990.16;1640638;85;21804;-79
2020/12/03 05:01:06;;;;;;;37.98;21.42;;;;;;;-0.45;100.00;100980.22;1746255;81;26859;-79
2020/12/03 05:03:59;;;;;;;43.93;24.10;;;;;;;-0.44;100.00;100990.85;1741699;81;21059;-80
2020/12/03 05:06:38;;;;;;;37.60;23.80;;;;;;;-0.50;100.00;100988.03;1742210;81;21030;-78
2020/12/03 05:09:39;;;;;;;37.67;22.33;;;;;;;-0.48;100.00;100986.44;1763495;80;21498;-79
2020/12/03 05:12:23;;;;;;;41.35;21.33;;;;;;;-0.46;100.00;100984.81;1749136;80;22144;-79
2020/12/03 05:15:06;;;;;;;40.17;21.93;;;;;;;-0.42;100.00;100985.86;1742450;80;21166;-80
2020/12/03 05:18:04;;;;;;;37.83;23.17;;;;;;;-0.40;100.00;100985.50;1762733;81;21117;-80
2020/12/03 05:20:53;;;;;;;31.43;15.60;;;;;;;-0.41;100.00;100984.63;1757664;80;21117;-79
2020/12/03 05:23:33;;;;;;;40.40;21.97;;;;;;;-0.45;100.00;100989.13;1757266;81;21081;-80
2020/12/03 05:26:03;;;;;;;32.05;16.77;;;;;;;-0.59;100.00;100989.78;1750178;81;21333;-80
2020/12/03 05:28:48;;;;;;;34.35;21.10;;;;;;;-0.69;100.00;100990.54;1763067;81;21166;-79
2020/12/03 05:31:30;;;;;;;36.90;21.67;;;;;;;-0.72;100.00;100988.34;1762464;81;21157;-78
2020/12/03 05:34:19;;;;;;;37.27;21.23;;;;;;;-0.64;100.00;100993.77;1741503;80;21168;-79
2020/12/03 05:36:58;;;;;;;33.07;19.07;;;;;;;-0.55;100.00;100994.59;1756126;80;21162;-79
2020/12/03 05:39:35;;;;;;;37.63;22.50;;;;;;;-0.57;100.00;100988.56;1754455;80;21348;-79
2020/12/03 05:42:06;;;;;;;36.77;22.03;;;;;;;-0.70;100.00;100997.30;1761191;81;21466;-80
2020/12/03 05:44:53;;;;;;;28.62;17.02;;;;;;;-0.75;100.00;101003.86;1742337;81;21117;-79
2020/12/03 05:47:32;;;;;;;35.57;22.13;;;;;;;-0.78;100.00;101006.25;1742163;81;21158;-78
2020/12/03 05:50:08;;;;;;;27.07;15.97;;;;;;;-0.86;100.00;101002.06;1763191;80;21130;-79
2020/12/03 05:52:36;;;;;;;44.03;23.83;;;;;;;-0.92;100.00;101008.53;1756459;80;21335;-78
2020/12/03 05:55:08;;;;;;;35.70;20.83;;;;;;;-0.96;100.00;101002.44;1742274;81;21119;-80
2020/12/03 05:57:42;;;;;;;39.27;21.07;;;;;;;-0.98;100.00;101002.78;1700703;83;21551;-78
2020/12/03 06:00:16;;;;;;;43.37;24.60;;;;;;;-1.02;100.00;101008.49;1736723;81;21592;-78
2020/12/03 06:03:25;;;;;;;40.60;21.93;;;;;;;-1.00;100.00;101015.39;1736586;82;21134;-79
2020/12/03 06:06:18;;;;;;;44.93;23.97;;;;;;;-0.99;100.00;101009.91;1736620;81;21424;-78
2020/12/03 06:09:19;;;;;;;42.23;23.40;;;;;;;-1.04;100.00;101007.16;1694476;83;21319;-79
2020/12/03 06:12:05;;;;;;;44.00;23.07;;;;;;;-1.08;100.00;101006.56;1701263;84;21088;-78
2020/12/03 06:15:12;;;;;;;46.33;25.47;;;;;;;-1.08;100.00;101002.75;1728765;82;21102;-79
2020/12/03 06:20:44;;;;;;;42.60;21.90;;;;;;;-0.92;100.00;101005.58;1669705;83;21245;-78
2020/12/03 06:24:00;;;;;;;36.83;22.10;;;;;;;-0.89;100.00;101008.67;1684496;83;21053;-78
2020/12/03 06:26:54;;;;;;;42.87;21.53;;;;;;;-0.92;100.00;101004.72;1687613;83;21088;-79
2020/12/03 06:29:37;;;;;;;48.60;25.30;;;;;;;-1.02;100.00;100995.80;1695456;83;21140;-78
2020/12/03 06:32:39;;;;;;;44.23;24.10;;;;;;;-1.08;100.00;101006.56;1678243;83;21334;-78
2020/12/03 06:35:38;;;;;;;48.90;25.93;;;;;;;-1.09;100.00;101002.25;1697855;83;21639;-76
2020/12/03 06:38:39;;;;;;;42.70;23.10;;;;;;;-1.10;100.00;101000.52;1665446;85;21116;-77
2020/12/03 06:41:48;;;;;;;46.92;25.75;;;;;;;-1.04;100.00;101000.81;1580670;88;21189;-78
2020/12/03 06:44:29;;;;;;;45.57;22.60;;;;;;;-0.99;100.00;101006.10;1573802;89;21271;-77
2020/12/03 06:47:36;;;;;;;42.90;21.07;;;;;;;-1.04;100.00;101005.89;1663817;84;21149;-78
2020/12/03 06:50:28;;;;;;;48.13;24.80;;;;;;;-1.13;100.00;101007.13;1656693;85;21439;-81
2020/12/03 06:53:24;;;;;;;45.70;24.30;;;;;;;-1.14;100.00;101010.48;1656795;84;21152;-80
2020/12/03 06:56:33;;;;;;;45.27;26.50;;;;;;;-1.09;100.00;101011.14;1660885;84;21096;-77
2020/12/03 06:59:20;;;;;;;41.57;22.93;;;;;;;-1.02;100.00;101004.28;1695418;83;21125;-79
2020/12/03 07:02:38;;;;;;;51.77;28.00;;;;;;;-1.01;100.00;101010.26;1685090;83;21120;-77
2020/12/03 07:05:56;;;;;;;52.43;26.43;;;;;;;-1.02;100.00;101011.90;1684190;83;21572;-78
2020/12/03 07:08:50;;;;;;;40.53;23.50;;;;;;;-1.01;100.00;101011.53;1662887;84;21195;-78
2020/12/03 07:11:51;;;;;;;49.00;28.33;;;;;;;-0.97;100.00;101013.00;1646731;85;21201;-77
2020/12/03 07:14:31;;;;;;;46.05;22.42;;;;;;;-1.01;100.00;101013.66;1696275;83;21116;-78
2020/12/03 07:17:54;;;;;;;44.43;23.93;;;;;;;-1.09;100.00;101011.14;1703762;83;21145;-77
2020/12/03 07:20:49;;;;;;;47.83;24.93;;;;;;;-1.10;100.00;101017.03;1720770;81;21304;-79
2020/12/03 07:23:48;;;;;;;53.20;29.73;;;;;;;-1.14;100.00;101023.17;1680362;83;21557;-78
2020/12/03 07:27:07;;;;;;;41.13;24.03;;;;;;;-1.13;100.00;101028.31;1703652;82;21151;-78
2020/12/03 07:30:04;;;;;;;49.60;27.60;;;;;;;-1.07;100.00;101020.98;1699264;82;21073;-78
2020/12/03 07:32:49;;;;;;;53.03;28.73;;;;;;;-1.08;100.00;101019.25;1712823;82;21083;-79
2020/12/03 07:35:38;;;;;;;55.83;31.93;;;;;;;-1.06;100.00;101024.39;1711731;82;21368;-79
2020/12/03 07:38:31;;;;;;;49.87;27.47;;;;;;;-1.12;100.00;101025.36;1728701;82;21109;-79
2020/12/03 07:40:59;;;;;;;50.73;23.63;;;;;;;-1.13;100.00;101031.25;1680150;83;21153;-78
2020/12/03 07:43:31;;;;;;;49.83;26.87;;;;;;;-1.13;100.00;101034.66;1672602;83;21113;-78
2020/12/03 07:45:59;;;;;;;63.53;32.33;;;;;;;-1.13;100.00;101030.84;1712684;83;21096;-77
2020/12/03 07:48:44;;;;;;;51.93;27.70;;;;;;;-1.11;100.00;101033.07;1730662;82;21620;-79
2020/12/03 07:51:15;;;;;;;56.40;31.43;;;;;;;-1.09;100.00;101028.91;1719584;82;21077;-78
2020/12/03 07:53:43;;;;;;;52.63;25.97;;;;;;;-1.07;100.00;101028.61;1694149;83;21069;-79
2020/12/03 07:56:32;;;;;;;54.93;29.33;;;;;;;-1.11;100.00;101034.34;1715984;83;21115;-79
2020/12/03 07:59:26;;;;;;;56.60;28.63;;;;;;;-1.11;100.00;101031.80;1719516;82;21183;-79
2020/12/03 08:01:59;;;;;;;52.30;27.87;;;;;;;-1.14;100.00;101034.59;1669954;83;21220;-78
2020/12/03 08:04:33;;;;;;;50.48;27.50;;;;;;;-1.15;100.00;101027.75;1717838;82;21128;-79
2020/12/03 08:07:13;;;;;;;43.23;22.93;;;;;;;-1.13;100.00;101027.44;1703764;82;21101;-79
2020/12/03 08:09:46;;;;;;;41.23;21.40;;;;;;;-1.10;100.00;101030.99;1715861;82;21114;-79
2020/12/03 08:12:21;;;;;;;47.20;24.10;;;;;;;-1.09;100.00;101024.24;1695333;83;21501;-79
2020/12/03 08:14:54;;;;;;;56.60;29.17;;;;;;;-1.12;100.00;101021.16;1710081;82;21822;-79
2020/12/03 08:17:28;;;;;;;50.57;29.07;;;;;;;-1.10;100.00;101019.97;1707405;82;21482;-78
2020/12/03 08:20:13;;;;;;;52.47;28.27;;;;;;;-1.03;100.00;101015.66;1697518;82;21109;-78
2020/12/03 08:22:43;;;;;;;44.37;24.27;;;;;;;-0.97;100.00;101015.95;1682867;84;21120;-79
2020/12/03 08:25:26;;;;;;;56.70;28.23;;;;;;;-0.91;100.00;101013.70;1650006;84;21173;-80
2020/12/03 08:28:01;;;;;;;49.03;28.67;;;;;;;-0.96;100.00;101012.59;1667506;84;21219;-79
2020/12/03 08:30:42;;;;;;;55.97;29.07;;;;;;;-0.96;100.00;101010.92;1670456;85;21149;-83
2020/12/03 15:13:21;;;;;;;70.90;32.60;;;;;;;-0.37;100.00;100861.07;1801984;75;25601;-82
2020/12/03 15:16:29;;;;;;;63.83;28.23;;;;;;;-0.44;100.00;100866.70;1691033;81;21051;-81
2020/12/03 15:19:42;;;;;;;69.37;29.43;;;;;;;-0.41;100.00;100860.48;1704494;81;20978;-82
2020/12/03 15:22:55;;;;;;;62.67;27.27;;;;;;;-0.44;100.00;100859.08;1714363;79;20963;-81
2020/12/03 15:25:51;;;;;;;57.60;26.23;;;;;;;-0.61;100.00;100856.69;1679067;83;21094;-83
2020/12/03 15:28:48;;;;;;;63.93;29.60;;;;;;;-0.67;100.00;100859.36;1645228;84;21197;-82
2020/12/03 15:32:03;;;;;;;78.30;32.17;;;;;;;-0.70;100.00;100852.47;1674384;81;21057;-82
2020/12/03 15:38:31;;;;;;;45.10;18.60;;;;;;;-0.65;100.00;100852.28;1734072;80;21330;-82
2020/12/03 15:41:38;;;;;;;67.27;29.83;;;;;;;-0.63;100.00;100855.73;1651589;81;21087;-80
2020/12/03 15:44:11;;;;;;;81.57;33.30;;;;;;;-0.70;100.00;100853.73;1728434;78;21049;-80
2020/12/03 15:46:41;;;;;;;71.40;28.40;;;;;;;-0.76;100.00;100849.66;1701603;80;21111;-83
2020/12/03 15:49:16;;;;;;;63.53;28.43;;;;;;;-0.71;100.00;100854.55;1726292;80;21418;-84
2020/12/03 15:51:51;;;;;;;69.17;28.67;;;;;;;-0.62;100.00;100852.79;1691345;81;21165;-83
2020/12/03 15:54:22;;;;;;;48.77;21.90;;;;;;;-0.55;100.00;100855.68;1742179;80;21025;-84
2020/12/03 15:57:14;;;;;;;53.57;21.07;;;;;;;-0.53;100.00;100855.73;1710949;83;21025;-81
2020/12/03 15:59:48;;;;;;;54.95;24.15;;;;;;;-0.51;100.00;100862.62;1697254;82;21043;-83
2020/12/03 16:02:34;;;;;;;66.07;29.27;;;;;;;-0.52;100.00;100856.22;1723298;82;21204;-84
2020/12/03 16:05:17;;;;;;;57.87;28.93;;;;;;;-0.57;100.00;100865.31;1657232;83;21126;-82
2020/12/03 16:07:49;;;;;;;59.53;24.83;;;;;;;-0.61;100.00;100859.63;1721317;81;21641;-85
2020/12/03 16:10:24;;;;;;;58.43;28.47;;;;;;;-0.60;100.00;100866.44;1739804;81;21002;-82
2020/12/03 16:13:16;;;;;;;61.13;29.10;;;;;;;-0.63;100.00;100851.92;1725573;81;21077;-83
2020/12/03 16:15:49;;;;;;;60.80;25.97;;;;;;;-0.66;100.00;100856.88;1688519;81;21374;-84
2020/12/03 16:18:20;;;;;;;52.57;25.17;;;;;;;-0.67;100.00;100856.82;1680360;84;21089;-83
2020/12/03 16:20:50;;;;;;;54.10;25.80;;;;;;;-0.73;100.00;100862.50;1714922;83;21054;-84
2020/12/03 16:23:27;;;;;;;71.83;29.93;;;;;;;-0.77;100.00;100856.82;1721098;81;21133;-83
2020/12/03 16:25:59;;;;;;;59.23;23.77;;;;;;;-0.80;100.00;100849.93;1709423;83;21178;-81
2020/12/03 16:28:30;;;;;;;67.17;31.10;;;;;;;-0.77;100.00;100846.25;1742350;80;21224;-83
2020/12/03 16:31:01;;;;;;;69.47;30.20;;;;;;;-0.67;100.00;100850.47;1707770;81;21070;-84
2020/12/03 16:33:29;;;;;;;55.33;22.40;;;;;;;-0.59;100.00;100851.28;1708907;80;21494;-81
2020/12/03 16:35:58;;;;;;;77.63;33.60;;;;;;;-0.53;100.00;100851.92;1727836;80;21176;-81
2020/12/03 16:38:28;;;;;;;65.33;28.90;;;;;;;-0.58;100.00;100844.52;1689238;82;21581;-81
2020/12/03 16:40:59;;;;;;;72.27;32.20;;;;;;;-0.61;100.00;100847.80;1719868;81;21377;-80
2020/12/03 16:43:30;;;;;;;74.13;31.90;;;;;;;-0.64;100.00;100839.17;1681978;83;21208;-81
2020/12/03 16:46:00;;;;;;;74.30;32.80;;;;;;;-0.64;100.00;100843.84;1686117;84;21072;-81
2020/12/03 16:48:31;;;;;;;76.97;32.40;;;;;;;-0.60;100.00;100852.06;1700719;83;21199;-80
2020/12/03 16:51:22;;;;;;;82.70;32.30;;;;;;;-0.52;100.00;100858.36;1703520;79;21053;-80
2020/12/03 16:53:53;;;;;;;68.20;30.43;;;;;;;-0.45;100.00;100854.81;1696739;81;21494;-81
2020/12/03 16:56:25;;;;;;;79.87;34.03;;;;;;;-0.47;100.00;100846.70;1670002;84;21103;-81
2020/12/03 16:58:57;;;;;;;65.93;30.30;;;;;;;-0.43;100.00;100845.56;1697621;82;21147;-81
2020/12/03 17:01:27;;;;;;;75.57;33.13;;;;;;;-0.36;100.00;100839.55;1696856;82;21137;-81
2020/12/03 17:04:16;;;;;;;83.03;34.93;;;;;;;-0.36;100.00;100842.09;1728651;82;21151;-79
2020/12/03 17:06:46;;;;;;;80.03;33.97;;;;;;;-0.41;100.00;100834.66;1680860;84;21415;-81
2020/12/03 17:09:46;;;;;;;79.03;33.07;;;;;;;-0.39;100.00;100826.70;1647255;85;20913;-79
2020/12/03 17:12:15;;;;;;;79.40;36.77;;;;;;;-0.42;100.00;100857.48;1665691;84;21057;-80
2020/12/03 17:14:48;;;;;;;99.70;42.00;;;;;;;-0.49;100.00;100858.49;1678268;84;21169;-76
2020/12/03 17:17:20;;;;;;;80.30;32.20;;;;;;;-0.51;100.00;100863.90;1657025;84;21218;-79
2020/12/03 17:19:53;;;;;;;73.93;30.60;;;;;;;-0.62;100.00;100870.58;1699376;84;21232;-79
2020/12/03 17:22:26;;;;;;;86.90;36.57;;;;;;;-0.73;100.00;100866.31;1690661;79;21299;-81
2020/12/03 17:28:10;;;;;;;81.47;32.50;;;;;;;-0.77;100.00;100879.28;1711906;79;21078;-83
2020/12/03 17:30:38;;;;;;;65.37;26.90;;;;;;;-0.67;100.00;100880.95;1701458;82;21769;-81
2020/12/03 17:33:25;;;;;;;73.93;30.10;;;;;;;-0.74;100.00;100874.34;1678031;85;21298;-81
2020/12/03 17:35:58;;;;;;;80.63;29.67;;;;;;;-0.79;100.00;100872.38;1690006;83;21073;-82
2020/12/03 17:38:30;;;;;;;70.23;30.37;;;;;;;-0.85;100.00;100874.65;1673278;83;21133;-80
2020/12/03 17:41:00;;;;;;;83.17;33.13;;;;;;;-0.89;100.00;100876.19;1703930;82;21161;-81
2020/12/03 17:43:47;;;;;;;62.88;24.43;;;;;;;-0.86;100.00;100875.46;1710622;83;21106;-83
2020/12/03 17:46:28;;;;;;;58.20;26.07;;;;;;;-0.99;100.00;100871.09;1667524;83;21241;-80
2020/12/03 17:48:57;;;;;;;77.90;31.83;;;;;;;-1.03;100.00;100865.82;1683515;84;21542;-80
2020/12/03 17:51:38;;;;;;;83.63;33.07;;;;;;;-1.06;100.00;100861.88;1684820;83;21145;-78
2020/12/03 17:54:24;;;;;;;71.80;30.27;;;;;;;-1.15;100.00;100866.12;1707744;81;21105;-79
2020/12/03 17:57:03;;;;;;;87.03;36.53;;;;;;;-1.16;100.00;100861.86;1766540;79;21186;-79
2020/12/03 17:59:34;;;;;;;83.27;34.87;;;;;;;-1.11;100.00;100860.78;1736092;80;21423;-79
2020/12/03 18:02:05;;;;;;;;;;;;;;;-1.00;100.00;100864.69;1759485;79;21129;-81
2020/12/03 18:04:43;;;;;;;77.87;29.00;;;;;;;-1.00;100.00;100873.17;1755044;80;20203;-83
2020/12/03 18:17:38;;;;;;;79.13;28.67;;;;;;;-1.07;100.00;100868.63;1593382;86;21278;-84
2020/12/03 18:33:20;;;;;;;93.87;36.53;;;;;;;-1.31;100.00;100858.23;1678032;81;21138;-82
2020/12/03 18:35:48;;;;;;;73.70;29.83;;;;;;;-1.28;100.00;100849.86;1694846;82;21197;-81
2020/12/03 18:38:18;;;;;;;83.93;32.43;;;;;;;-1.30;100.00;100853.62;1676399;82;21191;-81
2020/12/03 18:40:49;;;;;;;59.90;25.53;;;;;;;-1.32;100.00;100846.72;1660320;86;21229;-82
2020/12/03 18:43:20;;;;;;;85.75;33.00;;;;;;;-1.26;100.00;100850.81;1684349;83;21162;-81
2020/12/03 18:45:54;;;;;;;84.97;34.43;;;;;;;-1.26;100.00;100851.69;1629357;86;21055;-80
2020/12/03 18:48:29;;;;;;;72.77;29.80;;;;;;;-1.25;100.00;100855.95;1662929;82;21224;-80
2020/12/03 18:51:03;;;;;;;76.03;32.60;;;;;;;-1.25;100.00;100841.13;1736360;81;21133;-80
2020/12/03 18:53:33;;;;;;;82.07;29.80;;;;;;;-1.24;100.00;100845.42;1724239;82;21132;-78
2020/12/03 18:56:08;;;;;;;75.45;27.37;;;;;;;-1.25;100.00;100841.13;1717301;82;21252;-80
2020/12/03 18:59:06;;;;;;;65.93;25.57;;;;;;;-1.26;100.00;100851.69;1724108;82;21077;-80
2020/12/03 19:01:47;;;;;;;81.07;33.50;;;;;;;-1.21;100.00;100835.38;1737289;82;21153;-81
2020/12/03 19:04:15;;;;;;;54.20;23.87;;;;;;;-1.19;100.00;100837.59;1739076;80;21049;-80
2020/12/03 19:06:44;;;;;;;75.90;31.27;;;;;;;-1.16;100.00;100829.25;1672534;82;21098;-79
2020/12/03 19:09:16;;;;;;;78.75;31.55;;;;;;;-1.12;100.00;100830.72;1717688;82;21420;-79